Accueil
METAR-TAF:

METAR-TAF

Aéroports :

Aurigny,

Aéroport d'Aurigny

latitude: 49-43N, longitude: 002-12W, altitude: 71 m

Observation

Le bulletin a été fait il y a 26 minutes, à 09:50 UTC
Vent 5 kt de nord
Température 10°C
Humidité 76%
Pression 1019 hPa
Visibilité 10 km ou plus
Quelques nuages à une hauteur de 1800 ft
Nuages épars à une hauteur de 4500 ft

METAR: EGJA 280950Z 01005KT 9999 FEW018 SCT045 10/06 Q1019

Heure: 11:16 (10:16 UTC)

Prévision

Le bulletin a été fait il y a 2 heures et 24 minutes, à 07:52 UTC
Prévision valable du 28 à 09 UTC au 28 à 18 UTC
Vent 9 kt de nord-ouest
Visibilité 10 km ou plus
Nuages épars à une hauteur de 2000 ft

TAF: EGJA 280752Z 2809/2818 31009KT 9999 SCT020

Observations et prévisions météorologiques de plus de 4000 aéroports (messages METAR et TAF).

Les stations disponibles sont représentées par des disques jaunes et rouges sur la carte.

Passer la souris dessus pour voir le nom de la station.

Cliquer dessus pour voir les observations et prévisions météorologiques.

Pour changer de carte: cliquez sur les boutons verts avec une croix noire pour zoomer, sur le bouton vert avec un tiret pour effectuer un zoom arrière, ou sur les flèches vertes pour les cartes adjacentes.


METAR-TAF: